PWSweather.com
Personal Weather Stations
Station Observations
KMNHANSK2
Andys Live Weather Stations, Hanska, MN 56041

Andys Live Weather StationsHanska, MN 56041

Lat: 44.170119, Lon: -94.381619

Elevation: 1004

Station Type: Davis Instruments Vantage Pro2 Plus

http://www.madeliasliveweather.com/thompsonfarms/

Latest ConditionsUpdated 6:42:01 PM CDT Sunday, Apr 20, 2014
Currently Today's Max Today's Min Today's Average
Temperature 73.7°F23.2°C 75.8°F24.3°C 70.9°F21.6°C 73.4°F23.0°C
Dew Point 57.1°F13.9°C 57.1°F13.9°C 54.0°F12.2°C 55.3°F12.9°C
Winds 7.0 mph ESE11.3 kmh ESE 13.0 mph ESE20.9 kmh ESE - 6.4 mph 10.3 kmh
Wind Gusts 9.0 mph14.5 kmh 16.0 mph25.7 kmh - -
Humidity 56% 59% 48% 53%
Pressure 29.88 in1011.9 mb 29.97 in1014.9 mb 29.88 in1011.9 mb -
Hour Temp Dew Point Humidity Winds Wind Gusts Pressure Precip Precip Rate Daily Precip Total
06:42 PM 73.7°F23.2°C 57.1°F13.9°C 56% 7.0 mph ESE11.3 kmh ESE 9.0 mph14.5 kmh 29.88 in1011.9 mb 0.00 in0.0 mm 0.00 in/hr0.0 mm/hr 0.01 in0.3 mm
06:41 PM 73.7°F23.2°C 57.1°F13.9°C 56% 5.0 mph ESE8.0 kmh ESE 9.0 mph14.5 kmh 29.88 in1011.9 mb 0.00 in0.0 mm 0.00 in/hr0.0 mm/hr 0.01 in0.3 mm
06:40 PM 73.7°F23.2°C 57.1°F13.9°C 56% 8.0 mph E12.9 kmh E 9.0 mph14.5 kmh 29.88 in1011.9 mb 0.00 in0.0 mm 0.00 in/hr0.0 mm/hr 0.01 in0.3 mm
06:39 PM 73.7°F23.2°C 56.6°F13.7°C 55% 5.0 mph ESE8.0 kmh ESE 9.0 mph14.5 kmh 29.89 in1012.2 mb 0.00 in0.0 mm 0.00 in/hr0.0 mm/hr 0.01 in0.3 mm
06:38 PM 73.8°F23.2°C 56.6°F13.7°C 55% 5.0 mph ESE8.0 kmh ESE 9.0 mph14.5 kmh 29.89 in1012.2 mb 0.00 in0.0 mm 0.00 in/hr0.0 mm/hr 0.01 in0.3 mm
06:37 PM 73.8°F23.2°C 56.6°F13.7°C 55% 4.0 mph ESE6.4 kmh ESE 9.0 mph14.5 kmh 29.89 in1012.2 mb 0.00 in0.0 mm 0.00 in/hr0.0 mm/hr 0.01 in0.3 mm
06:36 PM 73.8°F23.2°C 56.6°F13.7°C 55% 7.0 mph ESE11.3 kmh ESE 9.0 mph14.5 kmh 29.89 in1012.2 mb 0.00 in0.0 mm 0.00 in/hr0.0 mm/hr 0.01 in0.3 mm
06:35 PM 73.8°F23.2°C 56.6°F13.7°C 55% 7.0 mph E11.3 kmh E 9.0 mph14.5 kmh 29.89 in1012.2 mb 0.00 in0.0 mm 0.00 in/hr0.0 mm/hr 0.01 in0.3 mm
06:34 PM 73.8°F23.2°C 56.6°F13.7°C 55% 7.0 mph E11.3 kmh E 9.0 mph14.5 kmh 29.89 in1012.2 mb 0.00 in0.0 mm 0.00 in/hr0.0 mm/hr 0.01 in0.3 mm
06:33 PM 73.9°F23.3°C 56.7°F13.7°C 55% 5.0 mph ENE8.0 kmh ENE 7.0 mph11.3 kmh 29.89 in1012.2 mb 0.00 in0.0 mm 0.00 in/hr0.0 mm/hr 0.01 in0.3 mm
06:32 PM 73.9°F23.3°C 56.7°F13.7°C 55% 4.0 mph ESE6.4 kmh ESE 7.0 mph11.3 kmh 29.89 in1012.2 mb 0.00 in0.0 mm 0.00 in/hr0.0 mm/hr 0.01 in0.3 mm
06:31 PM 73.9°F23.3°C 56.2°F13.4°C 54% 6.0 mph E9.7 kmh E 7.0 mph11.3 kmh 29.89 in1012.2 mb 0.00 in0.0 mm 0.00 in/hr0.0 mm/hr 0.01 in0.3 mm
06:30 PM 73.9°F23.3°C 56.2°F13.4°C 54% 6.0 mph E9.7 kmh E 12.0 mph19.3 kmh 29.89 in1012.2 mb 0.00 in0.0 mm 0.00 in/hr0.0 mm/hr 0.01 in0.3 mm
06:29 PM 74.0°F23.3°C 56.8°F13.8°C 55% 9.0 mph E14.5 kmh E 12.0 mph19.3 kmh 29.89 in1012.2 mb 0.00 in0.0 mm 0.00 in/hr0.0 mm/hr 0.01 in0.3 mm
06:28 PM 74.0°F23.3°C 56.8°F13.8°C 55% 9.0 mph E14.5 kmh E 12.0 mph19.3 kmh 29.89 in1012.2 mb 0.00 in0.0 mm 0.00 in/hr0.0 mm/hr 0.01 in0.3 mm
06:27 PM 73.9°F23.3°C 56.7°F13.7°C 55% 7.0 mph E11.3 kmh E 12.0 mph19.3 kmh 29.89 in1012.2 mb 0.00 in0.0 mm 0.00 in/hr0.0 mm/hr 0.01 in0.3 mm
06:26 PM 73.9°F23.3°C 56.7°F13.7°C 55% 6.0 mph E9.7 kmh E 12.0 mph19.3 kmh 29.89 in1012.2 mb 0.00 in0.0 mm 0.00 in/hr0.0 mm/hr 0.01 in0.3 mm
06:25 PM 73.9°F23.3°C 56.2°F13.4°C 54% 7.0 mph E11.3 kmh E 12.0 mph19.3 kmh 29.89 in1012.2 mb 0.00 in0.0 mm 0.00 in/hr0.0 mm/hr 0.01 in0.3 mm
06:24 PM 73.9°F23.3°C 56.7°F13.7°C 55% 7.0 mph ESE11.3 kmh ESE 12.0 mph19.3 kmh 29.89 in1012.2 mb 0.00 in0.0 mm 0.00 in/hr0.0 mm/hr 0.01 in0.3 mm
06:23 PM 73.9°F23.3°C 56.2°F13.4°C 54% 5.0 mph E8.0 kmh E 12.0 mph19.3 kmh 29.89 in1012.2 mb 0.00 in0.0 mm 0.00 in/hr0.0 mm/hr 0.01 in0.3 mm
06:22 PM 73.9°F23.3°C 56.2°F13.4°C 54% 3.0 mph E4.8 kmh E 12.0 mph19.3 kmh 29.89 in1012.2 mb 0.00 in0.0 mm 0.00 in/hr0.0 mm/hr 0.01 in0.3 mm
06:21 PM 73.9°F23.3°C 56.2°F13.4°C 54% 6.0 mph E9.7 kmh E 12.0 mph19.3 kmh 29.89 in1012.2 mb 0.00 in0.0 mm 0.00 in/hr0.0 mm/hr 0.01 in0.3 mm
06:20 PM 73.9°F23.3°C 56.2°F13.4°C 54% 5.0 mph E8.0 kmh E 12.0 mph19.3 kmh 29.89 in1012.2 mb 0.00 in0.0 mm 0.00 in/hr0.0 mm/hr 0.01 in0.3 mm
06:19 PM 73.9°F23.3°C 56.2°F13.4°C 54% 8.0 mph E12.9 kmh E 12.0 mph19.3 kmh 29.89 in1012.2 mb 0.00 in0.0 mm 0.00 in/hr0.0 mm/hr 0.01 in0.3 mm
06:18 PM 73.9°F23.3°C 56.7°F13.7°C 55% 8.0 mph E12.9 kmh E 12.0 mph19.3 kmh 29.89 in1012.2 mb 0.00 in0.0 mm 0.00 in/hr0.0 mm/hr 0.01 in0.3 mm
06:17 PM 73.9°F23.3°C 56.2°F13.4°C 54% 8.0 mph E12.9 kmh E 12.0 mph19.3 kmh 29.89 in1012.2 mb 0.00 in0.0 mm 0.00 in/hr0.0 mm/hr 0.01 in0.3 mm
06:16 PM 73.9°F23.3°C 55.7°F13.2°C 53% 5.0 mph E8.0 kmh E 12.0 mph19.3 kmh 29.89 in1012.2 mb 0.00 in0.0 mm 0.00 in/hr0.0 mm/hr 0.01 in0.3 mm
06:15 PM 73.9°F23.3°C 56.2°F13.4°C 54% 3.0 mph E4.8 kmh E 12.0 mph19.3 kmh 29.89 in1012.2 mb 0.00 in0.0 mm 0.00 in/hr0.0 mm/hr 0.01 in0.3 mm
06:14 PM 74.0°F23.3°C 56.3°F13.5°C 54% 6.0 mph E9.7 kmh E 12.0 mph19.3 kmh 29.89 in1012.2 mb 0.00 in0.0 mm 0.00 in/hr0.0 mm/hr 0.01 in0.3 mm
06:13 PM 74.0°F23.3°C 55.8°F13.2°C 53% 5.0 mph E8.0 kmh E 12.0 mph19.3 kmh 29.89 in1012.2 mb 0.00 in0.0 mm 0.00 in/hr0.0 mm/hr 0.01 in0.3 mm
06:12 PM 74.0°F23.3°C 56.3°F13.5°C 54% 7.0 mph E11.3 kmh E 12.0 mph19.3 kmh 29.89 in1012.2 mb 0.00 in0.0 mm 0.00 in/hr0.0 mm/hr 0.01 in0.3 mm
06:11 PM 74.1°F23.4°C 55.9°F13.3°C 53% 6.0 mph E9.7 kmh E 12.0 mph19.3 kmh 29.89 in1012.2 mb 0.00 in0.0 mm 0.00 in/hr0.0 mm/hr 0.01 in0.3 mm
06:10 PM 74.2°F23.4°C 56.0°F13.3°C 53% 9.0 mph E14.5 kmh E 12.0 mph19.3 kmh 29.89 in1012.2 mb 0.00 in0.0 mm 0.00 in/hr0.0 mm/hr 0.01 in0.3 mm
06:09 PM 74.3°F23.5°C 56.1°F13.4°C 53% 8.0 mph ENE12.9 kmh ENE 12.0 mph19.3 kmh 29.89 in1012.2 mb 0.00 in0.0 mm 0.00 in/hr0.0 mm/hr 0.01 in0.3 mm
06:08 PM 74.3°F23.5°C 56.1°F13.4°C 53% 9.0 mph ESE14.5 kmh ESE 12.0 mph19.3 kmh 29.89 in1012.2 mb 0.00 in0.0 mm 0.00 in/hr0.0 mm/hr 0.01 in0.3 mm
06:07 PM 74.4°F23.6°C 56.2°F13.4°C 53% 9.0 mph ESE14.5 kmh ESE 12.0 mph19.3 kmh 29.89 in1012.2 mb 0.00 in0.0 mm 0.00 in/hr0.0 mm/hr 0.01 in0.3 mm
06:06 PM 74.4°F23.6°C 56.2°F13.4°C 53% 6.0 mph SE9.7 kmh SE 12.0 mph19.3 kmh 29.89 in1012.2 mb 0.00 in0.0 mm 0.00 in/hr0.0 mm/hr 0.01 in0.3 mm
06:05 PM 74.5°F23.6°C 56.3°F13.5°C 53% 9.0 mph ESE14.5 kmh ESE 12.0 mph19.3 kmh 29.89 in1012.2 mb 0.00 in0.0 mm 0.00 in/hr0.0 mm/hr 0.01 in0.3 mm
06:04 PM 74.6°F23.7°C 56.4°F13.6°C 53% 7.0 mph ESE11.3 kmh ESE 11.0 mph17.7 kmh 29.89 in1012.2 mb 0.00 in0.0 mm 0.00 in/hr0.0 mm/hr 0.01 in0.3 mm
06:03 PM 74.7°F23.7°C 56.5°F13.6°C 53% 9.0 mph E14.5 kmh E 11.0 mph17.7 kmh 29.89 in1012.2 mb 0.00 in0.0 mm 0.00 in/hr0.0 mm/hr 0.01 in0.3 mm
06:02 PM 74.7°F23.7°C 56.5°F13.6°C 53% 9.0 mph ESE14.5 kmh ESE 11.0 mph17.7 kmh 29.89 in1012.2 mb 0.00 in0.0 mm 0.00 in/hr0.0 mm/hr 0.01 in0.3 mm
06:01 PM 74.7°F23.7°C 57.0°F13.9°C 54% 9.0 mph E14.5 kmh E 9.0 mph14.5 kmh 29.89 in1012.2 mb 0.00 in0.0 mm 0.00 in/hr0.0 mm/hr 0.01 in0.3 mm
06:00 PM 74.7°F23.7°C 57.0°F13.9°C 54% 6.0 mph E9.7 kmh E 13.0 mph20.9 kmh 29.89 in1012.2 mb 0.00 in0.0 mm 0.00 in/hr0.0 mm/hr 0.01 in0.3 mm
05:59 PM 74.6°F23.7°C 55.8°F13.2°C 52% 5.0 mph SE8.0 kmh SE 13.0 mph20.9 kmh 29.89 in1012.2 mb 0.00 in0.0 mm 0.00 in/hr0.0 mm/hr 0.01 in0.3 mm
05:58 PM 74.6°F23.7°C 56.4°F13.6°C 53% 7.0 mph SE11.3 kmh SE 13.0 mph20.9 kmh 29.89 in1012.2 mb 0.00 in0.0 mm 0.00 in/hr0.0 mm/hr 0.01 in0.3 mm
05:57 PM 74.6°F23.7°C 56.4°F13.6°C 53% 6.0 mph SE9.7 kmh SE 13.0 mph20.9 kmh 29.89 in1012.2 mb 0.00 in0.0 mm 0.00 in/hr0.0 mm/hr 0.01 in0.3 mm
05:56 PM 74.5°F23.6°C 56.8°F13.8°C 54% 10.0 mph ESE16.1 kmh ESE 13.0 mph20.9 kmh 29.89 in1012.2 mb 0.00 in0.0 mm 0.00 in/hr0.0 mm/hr 0.01 in0.3 mm
05:55 PM 74.5°F23.6°C 56.8°F13.8°C 54% 8.0 mph ESE12.9 kmh ESE 12.0 mph19.3 kmh 29.89 in1012.2 mb 0.00 in0.0 mm 0.00 in/hr0.0 mm/hr 0.01 in0.3 mm
05:54 PM 74.4°F23.6°C 56.2°F13.4°C 53% 10.0 mph ESE16.1 kmh ESE 12.0 mph19.3 kmh 29.89 in1012.2 mb 0.00 in0.0 mm 0.00 in/hr0.0 mm/hr 0.01 in0.3 mm
05:53 PM 74.4°F23.6°C 56.2°F13.4°C 53% 8.0 mph SE12.9 kmh SE 12.0 mph19.3 kmh 29.89 in1012.2 mb 0.00 in0.0 mm 0.00 in/hr0.0 mm/hr 0.01 in0.3 mm
05:52 PM 74.4°F23.6°C 56.2°F13.4°C 53% 7.0 mph E11.3 kmh E 12.0 mph19.3 kmh 29.89 in1012.2 mb 0.00 in0.0 mm 0.00 in/hr0.0 mm/hr 0.01 in0.3 mm
05:51 PM 74.4°F23.6°C 56.2°F13.4°C 53% 6.0 mph E9.7 kmh E 12.0 mph19.3 kmh 29.90 in1012.5 mb 0.00 in0.0 mm 0.00 in/hr0.0 mm/hr 0.01 in0.3 mm
05:50 PM 74.5°F23.6°C 56.3°F13.5°C 53% 5.0 mph ESE8.0 kmh ESE 12.0 mph19.3 kmh 29.90 in1012.5 mb 0.00 in0.0 mm 0.00 in/hr0.0 mm/hr 0.01 in0.3 mm
05:49 PM 74.5°F23.6°C 55.7°F13.2°C 52% 6.0 mph SE9.7 kmh SE 12.0 mph19.3 kmh 29.90 in1012.5 mb 0.00 in0.0 mm 0.00 in/hr0.0 mm/hr 0.01 in0.3 mm
05:48 PM 74.4°F23.6°C 56.2°F13.4°C 53% 7.0 mph E11.3 kmh E 12.0 mph19.3 kmh 29.90 in1012.5 mb 0.00 in0.0 mm 0.00 in/hr0.0 mm/hr 0.01 in0.3 mm
05:47 PM 74.5°F23.6°C 56.3°F13.5°C 53% 8.0 mph SE12.9 kmh SE 12.0 mph19.3 kmh 29.90 in1012.5 mb 0.00 in0.0 mm 0.00 in/hr0.0 mm/hr 0.01 in0.3 mm
05:46 PM 74.4°F23.6°C 56.2°F13.4°C 53% 7.0 mph SE11.3 kmh SE 12.0 mph19.3 kmh 29.90 in1012.5 mb 0.00 in0.0 mm 0.00 in/hr0.0 mm/hr 0.01 in0.3 mm
05:45 PM 74.5°F23.6°C 55.7°F13.2°C 52% 7.0 mph E11.3 kmh E 11.0 mph17.7 kmh 29.90 in1012.5 mb 0.00 in0.0 mm 0.00 in/hr0.0 mm/hr 0.01 in0.3 mm
05:44 PM 74.4°F23.6°C 56.2°F13.4°C 53% 8.0 mph E12.9 kmh E 11.0 mph17.7 kmh 29.90 in1012.5 mb 0.00 in0.0 mm 0.00 in/hr0.0 mm/hr 0.01 in0.3 mm
05:43 PM 74.4°F23.6°C 56.2°F13.4°C 53% 8.0 mph E12.9 kmh E 11.0 mph17.7 kmh 29.90 in1012.5 mb 0.00 in0.0 mm 0.00 in/hr0.0 mm/hr 0.01 in0.3 mm
05:42 PM 74.4°F23.6°C 55.7°F13.2°C 52% 8.0 mph E12.9 kmh E 10.0 mph16.1 kmh 29.90 in1012.5 mb 0.00 in0.0 mm 0.00 in/hr0.0 mm/hr 0.01 in0.3 mm
05:41 PM 74.4°F23.6°C 55.7°F13.2°C 52% 2.0 mph ESE3.2 kmh ESE 10.0 mph16.1 kmh 29.90 in1012.5 mb 0.00 in0.0 mm 0.00 in/hr0.0 mm/hr 0.01 in0.3 mm
05:40 PM 74.4°F23.6°C 55.7°F13.2°C 52% 3.0 mph SE4.8 kmh SE 10.0 mph16.1 kmh 29.90 in1012.5 mb 0.00 in0.0 mm 0.00 in/hr0.0 mm/hr 0.01 in0.3 mm
05:39 PM 74.4°F23.6°C 55.7°F13.2°C 52% 7.0 mph SE11.3 kmh SE 10.0 mph16.1 kmh 29.90 in1012.5 mb 0.00 in0.0 mm 0.00 in/hr0.0 mm/hr 0.01 in0.3 mm
05:38 PM 74.5°F23.6°C 55.7°F13.2°C 52% 9.0 mph E14.5 kmh E 10.0 mph16.1 kmh 29.90 in1012.5 mb 0.00 in0.0 mm 0.00 in/hr0.0 mm/hr 0.01 in0.3 mm
05:37 PM 74.5°F23.6°C 55.7°F13.2°C 52% 6.0 mph E9.7 kmh E 8.0 mph12.9 kmh 29.90 in1012.5 mb 0.00 in0.0 mm 0.00 in/hr0.0 mm/hr 0.01 in0.3 mm
05:36 PM 74.6°F23.7°C 55.3°F12.9°C 51% 3.0 mph ESE4.8 kmh ESE 7.0 mph11.3 kmh 29.90 in1012.5 mb 0.00 in0.0 mm 0.00 in/hr0.0 mm/hr 0.01 in0.3 mm
05:35 PM 74.6°F23.7°C 55.3°F12.9°C 51% 2.0 mph ESE3.2 kmh ESE 7.0 mph11.3 kmh 29.90 in1012.5 mb 0.00 in0.0 mm 0.00 in/hr0.0 mm/hr 0.01 in0.3 mm
05:34 PM 74.6°F23.7°C 55.3°F12.9°C 51% 5.0 mph E8.0 kmh E 7.0 mph11.3 kmh 29.90 in1012.5 mb 0.00 in0.0 mm 0.00 in/hr0.0 mm/hr 0.01 in0.3 mm
05:33 PM 74.6°F23.7°C 55.3°F12.9°C 51% 2.0 mph S3.2 kmh S 7.0 mph11.3 kmh 29.90 in1012.5 mb 0.00 in0.0 mm 0.00 in/hr0.0 mm/hr 0.01 in0.3 mm
05:32 PM 74.6°F23.7°C 55.3°F12.9°C 51% 2.0 mph S3.2 kmh S 7.0 mph11.3 kmh 29.90 in1012.5 mb 0.00 in0.0 mm 0.00 in/hr0.0 mm/hr 0.01 in0.3 mm
05:31 PM 74.6°F23.7°C 55.3°F12.9°C 51% 6.0 mph S9.7 kmh S 6.0 mph9.7 kmh 29.90 in1012.5 mb 0.00 in0.0 mm 0.00 in/hr0.0 mm/hr 0.01 in0.3 mm
05:30 PM 74.7°F23.7°C 55.4°F13.0°C 51% 4.0 mph SE6.4 kmh SE 13.0 mph20.9 kmh 29.90 in1012.5 mb 0.00 in0.0 mm 0.00 in/hr0.0 mm/hr 0.01 in0.3 mm
05:29 PM 74.6°F23.7°C 55.3°F12.9°C 51% 8.0 mph SSE12.9 kmh SSE 13.0 mph20.9 kmh 29.90 in1012.5 mb 0.00 in0.0 mm 0.00 in/hr0.0 mm/hr 0.01 in0.3 mm
05:28 PM 74.6°F23.7°C 55.8°F13.2°C 52% 10.0 mph SSE16.1 kmh SSE 13.0 mph20.9 kmh 29.90 in1012.5 mb 0.00 in0.0 mm 0.00 in/hr0.0 mm/hr 0.01 in0.3 mm
05:27 PM 74.6°F23.7°C 55.8°F13.2°C 52% 8.0 mph SSE12.9 kmh SSE 13.0 mph20.9 kmh 29.90 in1012.5 mb 0.00 in0.0 mm 0.00 in/hr0.0 mm/hr 0.01 in0.3 mm
05:26 PM 74.6°F23.7°C 55.8°F13.2°C 52% 5.0 mph SE8.0 kmh SE 13.0 mph20.9 kmh 29.90 in1012.5 mb 0.00 in0.0 mm 0.00 in/hr0.0 mm/hr 0.01 in0.3 mm
05:25 PM 74.5°F23.6°C 55.7°F13.2°C 52% 7.0 mph E11.3 kmh E 13.0 mph20.9 kmh 29.90 in1012.5 mb 0.00 in0.0 mm 0.00 in/hr0.0 mm/hr 0.01 in0.3 mm
05:24 PM 74.4°F23.6°C 55.7°F13.2°C 52% 7.0 mph ENE11.3 kmh ENE 13.0 mph20.9 kmh 29.90 in1012.5 mb 0.00 in0.0 mm 0.00 in/hr0.0 mm/hr 0.01 in0.3 mm
05:23 PM 74.4°F23.6°C 55.7°F13.2°C 52% 5.0 mph SE8.0 kmh SE 13.0 mph20.9 kmh 29.90 in1012.5 mb 0.00 in0.0 mm 0.00 in/hr0.0 mm/hr 0.01 in0.3 mm
05:22 PM 74.4°F23.6°C 55.7°F13.2°C 52% 7.0 mph SE11.3 kmh SE 13.0 mph20.9 kmh 29.90 in1012.5 mb 0.00 in0.0 mm 0.00 in/hr0.0 mm/hr 0.01 in0.3 mm
05:21 PM 74.4°F23.6°C 55.1°F12.8°C 51% 13.0 mph ESE20.9 kmh ESE 13.0 mph20.9 kmh 29.90 in1012.5 mb 0.00 in0.0 mm 0.00 in/hr0.0 mm/hr 0.01 in0.3 mm
05:20 PM 74.4°F23.6°C 54.6°F12.6°C 50% 1.0 mph SE1.6 kmh SE 12.0 mph19.3 kmh 29.90 in1012.5 mb 0.00 in0.0 mm 0.00 in/hr0.0 mm/hr 0.01 in0.3 mm
05:19 PM 74.4°F23.6°C 54.6°F12.6°C 50% 4.0 mph SE6.4 kmh SE 12.0 mph19.3 kmh 29.90 in1012.5 mb 0.00 in0.0 mm 0.00 in/hr0.0 mm/hr 0.01 in0.3 mm
05:18 PM 74.5°F23.6°C 55.2°F12.9°C 51% 5.0 mph SSE8.0 kmh SSE 12.0 mph19.3 kmh 29.91 in1012.9 mb 0.00 in0.0 mm 0.00 in/hr0.0 mm/hr 0.01 in0.3 mm
05:17 PM 74.5°F23.6°C 54.7°F12.6°C 50% 2.0 mph SSE3.2 kmh SSE 12.0 mph19.3 kmh 29.91 in1012.9 mb 0.00 in0.0 mm 0.00 in/hr0.0 mm/hr 0.01 in0.3 mm
05:16 PM 74.5°F23.6°C 55.2°F12.9°C 51% 7.0 mph SSE11.3 kmh SSE 12.0 mph19.3 kmh 29.90 in1012.5 mb 0.00 in0.0 mm 0.00 in/hr0.0 mm/hr 0.01 in0.3 mm
05:15 PM 74.5°F23.6°C 55.7°F13.2°C 52% 10.0 mph SE16.1 kmh SE 12.0 mph19.3 kmh 29.91 in1012.9 mb 0.00 in0.0 mm 0.00 in/hr0.0 mm/hr 0.01 in0.3 mm
05:14 PM 74.4°F23.6°C 55.1°F12.8°C 51% 7.0 mph ESE11.3 kmh ESE 12.0 mph19.3 kmh 29.91 in1012.9 mb 0.00 in0.0 mm 0.00 in/hr0.0 mm/hr 0.01 in0.3 mm
05:13 PM 74.5°F23.6°C 55.2°F12.9°C 51% 4.0 mph ESE6.4 kmh ESE 12.0 mph19.3 kmh 29.90 in1012.5 mb 0.00 in0.0 mm 0.00 in/hr0.0 mm/hr 0.01 in0.3 mm
05:12 PM 74.5°F23.6°C 55.2°F12.9°C 51% 9.0 mph ESE14.5 kmh ESE 12.0 mph19.3 kmh 29.91 in1012.9 mb 0.00 in0.0 mm 0.00 in/hr0.0 mm/hr 0.01 in0.3 mm
05:11 PM 74.4°F23.6°C 55.1°F12.8°C 51% 10.0 mph SE16.1 kmh SE 12.0 mph19.3 kmh 29.91 in1012.9 mb 0.00 in0.0 mm 0.00 in/hr0.0 mm/hr 0.01 in0.3 mm
05:10 PM 74.4°F23.6°C 55.1°F12.8°C 51% 10.0 mph SSE16.1 kmh SSE 12.0 mph19.3 kmh 29.91 in1012.9 mb 0.00 in0.0 mm 0.00 in/hr0.0 mm/hr 0.01 in0.3 mm
05:09 PM 74.4°F23.6°C 55.7°F13.2°C 52% 8.0 mph S12.9 kmh S 12.0 mph19.3 kmh 29.91 in1012.9 mb 0.00 in0.0 mm 0.00 in/hr0.0 mm/hr 0.01 in0.3 mm
05:08 PM 74.3°F23.5°C 55.0°F12.8°C 51% 6.0 mph SSE9.7 kmh SSE 12.0 mph19.3 kmh 29.91 in1012.9 mb 0.00 in0.0 mm 0.00 in/hr0.0 mm/hr 0.01 in0.3 mm
05:07 PM 74.3°F23.5°C 55.6°F13.1°C 52% 8.0 mph SSE12.9 kmh SSE 12.0 mph19.3 kmh 29.91 in1012.9 mb 0.00 in0.0 mm 0.00 in/hr0.0 mm/hr 0.01 in0.3 mm
05:06 PM 74.2°F23.4°C 55.5°F13.1°C 52% 7.0 mph SE11.3 kmh SE 12.0 mph19.3 kmh 29.91 in1012.9 mb 0.00 in0.0 mm 0.00 in/hr0.0 mm/hr 0.01 in0.3 mm
05:05 PM 74.1°F23.4°C 55.4°F13.0°C 52% 9.0 mph SE14.5 kmh SE 12.0 mph19.3 kmh 29.91 in1012.9 mb 0.00 in0.0 mm 0.00 in/hr0.0 mm/hr 0.01 in0.3 mm
05:04 PM 74.0°F23.3°C 55.3°F12.9°C 52% 9.0 mph ESE14.5 kmh ESE 10.0 mph16.1 kmh 29.91 in1012.9 mb 0.00 in0.0 mm 0.00 in/hr0.0 mm/hr 0.01 in0.3 mm
05:03 PM 74.0°F23.3°C 55.3°F12.9°C 52% 6.0 mph SE9.7 kmh SE 10.0 mph16.1 kmh 29.91 in1012.9 mb 0.00 in0.0 mm 0.00 in/hr0.0 mm/hr 0.01 in0.3 mm
05:02 PM 74.1°F23.4°C 55.4°F13.0°C 52% 5.0 mph E8.0 kmh E 10.0 mph16.1 kmh 29.91 in1012.9 mb 0.00 in0.0 mm 0.00 in/hr0.0 mm/hr 0.01 in0.3 mm
05:00 PM 74.2°F23.4°C 55.5°F13.1°C 52% 6.0 mph E9.7 kmh E 15.0 mph24.1 kmh 29.91 in1012.9 mb 0.01 in0.3 mm 0.00 in/hr0.0 mm/hr 0.01 in0.3 mm
04:59 PM 74.2°F23.4°C 55.5°F13.1°C 52% 7.0 mph E11.3 kmh E 15.0 mph24.1 kmh 29.91 in1012.9 mb 0.01 in0.3 mm 0.00 in/hr0.0 mm/hr 0.01 in0.3 mm
04:58 PM 74.2°F23.4°C 56.0°F13.3°C 53% 10.0 mph SE16.1 kmh SE 15.0 mph24.1 kmh 29.91 in1012.9 mb 0.01 in0.3 mm 0.00 in/hr0.0 mm/hr 0.01 in0.3 mm
04:57 PM 74.2°F23.4°C 56.0°F13.3°C 53% 9.0 mph E14.5 kmh E 15.0 mph24.1 kmh 29.91 in1012.9 mb 0.01 in0.3 mm 0.00 in/hr0.0 mm/hr 0.01 in0.3 mm
04:56 PM 74.2°F23.4°C 56.0°F13.3°C 53% 8.0 mph ESE12.9 kmh ESE 15.0 mph24.1 kmh 29.91 in1012.9 mb 0.01 in0.3 mm 0.00 in/hr0.0 mm/hr 0.01 in0.3 mm
04:55 PM 74.2°F23.4°C 56.0°F13.3°C 53% 10.0 mph ENE16.1 kmh ENE 13.0 mph20.9 kmh 29.91 in1012.9 mb 0.01 in0.3 mm 0.00 in/hr0.0 mm/hr 0.01 in0.3 mm
04:54 PM 74.2°F23.4°C 55.5°F13.1°C 52% 7.0 mph E11.3 kmh E 13.0 mph20.9 kmh 29.91 in1012.9 mb 0.01 in0.3 mm 0.00 in/hr0.0 mm/hr 0.01 in0.3 mm
04:53 PM 74.2°F23.4°C 54.9°F12.7°C 51% 3.0 mph SE4.8 kmh SE 13.0 mph20.9 kmh 29.90 in1012.5 mb 0.01 in0.3 mm 0.00 in/hr0.0 mm/hr 0.01 in0.3 mm
04:52 PM 74.2°F23.4°C 54.9°F12.7°C 51% 2.0 mph SE3.2 kmh SE 13.0 mph20.9 kmh 29.91 in1012.9 mb 0.01 in0.3 mm 0.00 in/hr0.0 mm/hr 0.01 in0.3 mm
04:51 PM 74.2°F23.4°C 54.9°F12.7°C 51% 3.0 mph SE4.8 kmh SE 13.0 mph20.9 kmh 29.91 in1012.9 mb 0.01 in0.3 mm 0.00 in/hr0.0 mm/hr 0.01 in0.3 mm
04:50 PM 74.3°F23.5°C 55.6°F13.1°C 52% 8.0 mph SE12.9 kmh SE 13.0 mph20.9 kmh 29.91 in1012.9 mb 0.01 in0.3 mm 0.00 in/hr0.0 mm/hr 0.01 in0.3 mm
04:49 PM 74.3°F23.5°C 55.6°F13.1°C 52% 8.0 mph SE12.9 kmh SE 13.0 mph20.9 kmh 29.91 in1012.9 mb 0.01 in0.3 mm 0.00 in/hr0.0 mm/hr 0.01 in0.3 mm
04:48 PM 74.2°F23.4°C 55.5°F13.1°C 52% 11.0 mph SE17.7 kmh SE 13.0 mph20.9 kmh 29.91 in1012.9 mb 0.01 in0.3 mm 0.00 in/hr0.0 mm/hr 0.01 in0.3 mm
04:47 PM 74.1°F23.4°C 55.9°F13.3°C 53% 4.0 mph ESE6.4 kmh ESE 13.0 mph20.9 kmh 29.91 in1012.9 mb 0.01 in0.3 mm 0.00 in/hr0.0 mm/hr 0.01 in0.3 mm
04:46 PM 74.1°F23.4°C 55.4°F13.0°C 52% 3.0 mph ESE4.8 kmh ESE 13.0 mph20.9 kmh 29.91 in1012.9 mb 0.01 in0.3 mm 0.00 in/hr0.0 mm/hr 0.01 in0.3 mm
04:45 PM 74.1°F23.4°C 55.4°F13.0°C 52% 3.0 mph E4.8 kmh E 13.0 mph20.9 kmh 29.91 in1012.9 mb 0.01 in0.3 mm 0.00 in/hr0.0 mm/hr 0.01 in0.3 mm
04:44 PM 74.0°F23.3°C 55.8°F13.2°C 53% 2.0 mph SE3.2 kmh SE 13.0 mph20.9 kmh 29.91 in1012.9 mb 0.01 in0.3 mm 0.00 in/hr0.0 mm/hr 0.01 in0.3 mm
04:43 PM 74.1°F23.4°C 54.8°F12.7°C 51% 7.0 mph ESE11.3 kmh ESE 13.0 mph20.9 kmh 29.91 in1012.9 mb 0.01 in0.3 mm 0.00 in/hr0.0 mm/hr 0.01 in0.3 mm
04:42 PM 74.1°F23.4°C 55.4°F13.0°C 52% 10.0 mph ESE16.1 kmh ESE 13.0 mph20.9 kmh 29.91 in1012.9 mb 0.01 in0.3 mm 0.00 in/hr0.0 mm/hr 0.01 in0.3 mm
04:41 PM 74.2°F23.4°C 54.9°F12.7°C 51% 4.0 mph SE6.4 kmh SE 13.0 mph20.9 kmh 29.91 in1012.9 mb 0.01 in0.3 mm 0.00 in/hr0.0 mm/hr 0.01 in0.3 mm
04:40 PM 74.3°F23.5°C 55.6°F13.1°C 52% 7.0 mph ESE11.3 kmh ESE 13.0 mph20.9 kmh 29.91 in1012.9 mb 0.01 in0.3 mm 0.00 in/hr0.0 mm/hr 0.01 in0.3 mm
04:39 PM 74.3°F23.5°C 55.6°F13.1°C 52% 11.0 mph SE17.7 kmh SE 13.0 mph20.9 kmh 29.91 in1012.9 mb 0.01 in0.3 mm 0.00 in/hr0.0 mm/hr 0.01 in0.3 mm
04:38 PM 74.4°F23.6°C 55.7°F13.2°C 52% 6.0 mph SE9.7 kmh SE 13.0 mph20.9 kmh 29.91 in1012.9 mb 0.01 in0.3 mm 0.00 in/hr0.0 mm/hr 0.01 in0.3 mm
04:37 PM 74.4°F23.6°C 55.1°F12.8°C 51% 9.0 mph SE14.5 kmh SE 13.0 mph20.9 kmh 29.91 in1012.9 mb 0.01 in0.3 mm 0.00 in/hr0.0 mm/hr 0.01 in0.3 mm
04:36 PM 74.4°F23.6°C 55.1°F12.8°C 51% 8.0 mph ESE12.9 kmh ESE 13.0 mph20.9 kmh 29.91 in1012.9 mb 0.01 in0.3 mm 0.00 in/hr0.0 mm/hr 0.01 in0.3 mm
04:35 PM 74.4°F23.6°C 55.1°F12.8°C 51% 11.0 mph ESE17.7 kmh ESE 13.0 mph20.9 kmh 29.91 in1012.9 mb 0.01 in0.3 mm 0.00 in/hr0.0 mm/hr 0.01 in0.3 mm
04:34 PM 74.3°F23.5°C 55.0°F12.8°C 51% 7.0 mph ESE11.3 kmh ESE 13.0 mph20.9 kmh 29.91 in1012.9 mb 0.01 in0.3 mm 0.00 in/hr0.0 mm/hr 0.01 in0.3 mm
04:33 PM 74.4°F23.6°C 55.1°F12.8°C 51% 8.0 mph SE12.9 kmh SE 13.0 mph20.9 kmh 29.91 in1012.9 mb 0.01 in0.3 mm 0.00 in/hr0.0 mm/hr 0.01 in0.3 mm
04:32 PM 74.4°F23.6°C 55.1°F12.8°C 51% 11.0 mph SE17.7 kmh SE 13.0 mph20.9 kmh 29.91 in1012.9 mb 0.01 in0.3 mm 0.00 in/hr0.0 mm/hr 0.01 in0.3 mm
04:31 PM 74.4°F23.6°C 55.1°F12.8°C 51% 10.0 mph SE16.1 kmh SE 12.0 mph19.3 kmh 29.91 in1012.9 mb 0.01 in0.3 mm 0.00 in/hr0.0 mm/hr 0.01 in0.3 mm
04:30 PM 74.4°F23.6°C 55.1°F12.8°C 51% 7.0 mph SE11.3 kmh SE 16.0 mph25.7 kmh 29.91 in1012.9 mb 0.01 in0.3 mm 0.00 in/hr0.0 mm/hr 0.01 in0.3 mm
04:29 PM 74.3°F23.5°C 55.6°F13.1°C 52% 11.0 mph SE17.7 kmh SE 16.0 mph25.7 kmh 29.91 in1012.9 mb 0.01 in0.3 mm 0.00 in/hr0.0 mm/hr 0.01 in0.3 mm
04:28 PM 74.2°F23.4°C 55.5°F13.1°C 52% 9.0 mph SE14.5 kmh SE 16.0 mph25.7 kmh 29.91 in1012.9 mb 0.01 in0.3 mm 0.00 in/hr0.0 mm/hr 0.01 in0.3 mm
04:27 PM 74.2°F23.4°C 54.9°F12.7°C 51% 6.0 mph SE9.7 kmh SE 16.0 mph25.7 kmh 29.91 in1012.9 mb 0.01 in0.3 mm 0.00 in/hr0.0 mm/hr 0.01 in0.3 mm
04:26 PM 74.2°F23.4°C 54.9°F12.7°C 51% 4.0 mph E6.4 kmh E 16.0 mph25.7 kmh 29.91 in1012.9 mb 0.01 in0.3 mm 0.00 in/hr0.0 mm/hr 0.01 in0.3 mm
04:25 PM 74.2°F23.4°C 54.9°F12.7°C 51% 7.0 mph ESE11.3 kmh ESE 16.0 mph25.7 kmh 29.91 in1012.9 mb 0.01 in0.3 mm 0.00 in/hr0.0 mm/hr 0.01 in0.3 mm
04:24 PM 74.2°F23.4°C 54.9°F12.7°C 51% 9.0 mph ESE14.5 kmh ESE 16.0 mph25.7 kmh 29.92 in1013.2 mb 0.01 in0.3 mm 0.00 in/hr0.0 mm/hr 0.01 in0.3 mm
04:23 PM 74.2°F23.4°C 55.5°F13.1°C 52% 8.0 mph SSE12.9 kmh SSE 16.0 mph25.7 kmh 29.91 in1012.9 mb 0.01 in0.3 mm 0.00 in/hr0.0 mm/hr 0.01 in0.3 mm
04:22 PM 74.1°F23.4°C 55.4°F13.0°C 52% 10.0 mph SSE16.1 kmh SSE 13.0 mph20.9 kmh 29.92 in1013.2 mb 0.01 in0.3 mm 0.00 in/hr0.0 mm/hr 0.01 in0.3 mm
04:21 PM 74.0°F23.3°C 54.7°F12.6°C 51% 4.0 mph ESE6.4 kmh ESE 13.0 mph20.9 kmh 29.92 in1013.2 mb 0.01 in0.3 mm 0.00 in/hr0.0 mm/hr 0.01 in0.3 mm
04:20 PM 74.0°F23.3°C 54.7°F12.6°C 51% 4.0 mph ESE6.4 kmh ESE 13.0 mph20.9 kmh 29.92 in1013.2 mb 0.01 in0.3 mm 0.00 in/hr0.0 mm/hr 0.01 in0.3 mm
04:19 PM 74.0°F23.3°C 55.3°F12.9°C 52% 5.0 mph SE8.0 kmh SE 13.0 mph20.9 kmh 29.92 in1013.2 mb 0.01 in0.3 mm 0.00 in/hr0.0 mm/hr 0.01 in0.3 mm
04:18 PM 74.0°F23.3°C 55.3°F12.9°C 52% 10.0 mph E16.1 kmh E 13.0 mph20.9 kmh 29.92 in1013.2 mb 0.01 in0.3 mm 0.00 in/hr0.0 mm/hr 0.01 in0.3 mm
04:17 PM 74.0°F23.3°C 54.7°F12.6°C 51% 3.0 mph SE4.8 kmh SE 13.0 mph20.9 kmh 29.92 in1013.2 mb 0.01 in0.3 mm 0.00 in/hr0.0 mm/hr 0.01 in0.3 mm
04:16 PM 74.1°F23.4°C 54.8°F12.7°C 51% 10.0 mph SE16.1 kmh SE 13.0 mph20.9 kmh 29.92 in1013.2 mb 0.01 in0.3 mm 0.00 in/hr0.0 mm/hr 0.01 in0.3 mm
04:15 PM 74.1°F23.4°C 54.8°F12.7°C 51% 7.0 mph SSE11.3 kmh SSE 13.0 mph20.9 kmh 29.92 in1013.2 mb 0.01 in0.3 mm 0.00 in/hr0.0 mm/hr 0.01 in0.3 mm
04:14 PM 74.2°F23.4°C 54.9°F12.7°C 51% 12.0 mph SE19.3 kmh SE 13.0 mph20.9 kmh 29.92 in1013.2 mb 0.01 in0.3 mm 0.00 in/hr0.0 mm/hr 0.01 in0.3 mm
04:13 PM 74.2°F23.4°C 54.9°F12.7°C 51% 5.0 mph SSE8.0 kmh SSE 13.0 mph20.9 kmh 29.92 in1013.2 mb 0.01 in0.3 mm 0.00 in/hr0.0 mm/hr 0.01 in0.3 mm
04:12 PM 74.2°F23.4°C 54.9°F12.7°C 51% 3.0 mph SSE4.8 kmh SSE 13.0 mph20.9 kmh 29.92 in1013.2 mb 0.01 in0.3 mm 0.00 in/hr0.0 mm/hr 0.01 in0.3 mm
04:11 PM 74.2°F23.4°C 54.4°F12.4°C 50% 6.0 mph SSE9.7 kmh SSE 13.0 mph20.9 kmh 29.92 in1013.2 mb 0.01 in0.3 mm 0.00 in/hr0.0 mm/hr 0.01 in0.3 mm
04:10 PM 74.2°F23.4°C 54.9°F12.7°C 51% 6.0 mph SE9.7 kmh SE 13.0 mph20.9 kmh 29.92 in1013.2 mb 0.01 in0.3 mm 0.00 in/hr0.0 mm/hr 0.01 in0.3 mm
04:09 PM 74.3°F23.5°C 55.0°F12.8°C 51% 8.0 mph SE12.9 kmh SE 13.0 mph20.9 kmh 29.92 in1013.2 mb 0.01 in0.3 mm 0.00 in/hr0.0 mm/hr 0.01 in0.3 mm
04:08 PM 74.3°F23.5°C 55.6°F13.1°C 52% 5.0 mph SE8.0 kmh SE 13.0 mph20.9 kmh 29.92 in1013.2 mb 0.01 in0.3 mm 0.00 in/hr0.0 mm/hr 0.01 in0.3 mm
04:07 PM 74.2°F23.4°C 54.9°F12.7°C 51% 3.0 mph S4.8 kmh S 13.0 mph20.9 kmh 29.92 in1013.2 mb 0.01 in0.3 mm 0.00 in/hr0.0 mm/hr 0.01 in0.3 mm
04:06 PM 74.2°F23.4°C 54.4°F12.4°C 50% 4.0 mph S6.4 kmh S 13.0 mph20.9 kmh 29.92 in1013.2 mb 0.01 in0.3 mm 0.00 in/hr0.0 mm/hr 0.01 in0.3 mm
04:05 PM 74.2°F23.4°C 54.4°F12.4°C 50% 4.0 mph SSE6.4 kmh SSE 13.0 mph20.9 kmh 29.92 in1013.2 mb 0.01 in0.3 mm 0.00 in/hr0.0 mm/hr 0.01 in0.3 mm
04:04 PM 74.3°F23.5°C 55.0°F12.8°C 51% 5.0 mph SE8.0 kmh SE 13.0 mph20.9 kmh 29.92 in1013.2 mb 0.01 in0.3 mm 0.00 in/hr0.0 mm/hr 0.01 in0.3 mm
04:03 PM 74.3°F23.5°C 55.0°F12.8°C 51% 9.0 mph ESE14.5 kmh ESE 13.0 mph20.9 kmh 29.92 in1013.2 mb 0.01 in0.3 mm 0.00 in/hr0.0 mm/hr 0.01 in0.3 mm
04:02 PM 74.3°F23.5°C 54.5°F12.5°C 50% 5.0 mph SE8.0 kmh SE 9.0 mph14.5 kmh 29.92 in1013.2 mb 0.01 in0.3 mm 0.00 in/hr0.0 mm/hr 0.01 in0.3 mm
04:01 PM 74.3°F23.5°C 55.0°F12.8°C 51% 8.0 mph SE12.9 kmh SE 9.0 mph14.5 kmh 29.92 in1013.2 mb 0.01 in0.3 mm 0.00 in/hr0.0 mm/hr 0.01 in0.3 mm
04:00 PM 74.2°F23.4°C 54.9°F12.7°C 51% 10.0 mph E16.1 kmh E 14.0 mph22.5 kmh 29.92 in1013.2 mb 0.01 in0.3 mm 0.00 in/hr0.0 mm/hr 0.01 in0.3 mm
03:59 PM 74.2°F23.4°C 54.9°F12.7°C 51% 4.0 mph SE6.4 kmh SE 14.0 mph22.5 kmh 29.92 in1013.2 mb 0.01 in0.3 mm 0.00 in/hr0.0 mm/hr 0.01 in0.3 mm
03:58 PM 74.1°F23.4°C 55.9°F13.3°C 53% 8.0 mph E12.9 kmh E 14.0 mph22.5 kmh 29.92 in1013.2 mb 0.01 in0.3 mm 0.00 in/hr0.0 mm/hr 0.01 in0.3 mm
03:57 PM 74.0°F23.3°C 55.3°F12.9°C 52% 4.0 mph SE6.4 kmh SE 14.0 mph22.5 kmh 29.92 in1013.2 mb 0.01 in0.3 mm 0.00 in/hr0.0 mm/hr 0.01 in0.3 mm
03:56 PM 74.0°F23.3°C 54.7°F12.6°C 51% 4.0 mph S6.4 kmh S 14.0 mph22.5 kmh 29.92 in1013.2 mb 0.01 in0.3 mm 0.00 in/hr0.0 mm/hr 0.01 in0.3 mm
03:55 PM 74.0°F23.3°C 55.3°F12.9°C 52% 4.0 mph S6.4 kmh S 14.0 mph22.5 kmh 29.92 in1013.2 mb 0.01 in0.3 mm 0.00 in/hr0.0 mm/hr 0.01 in0.3 mm
03:54 PM 74.1°F23.4°C 54.3°F12.4°C 50% 5.0 mph SSE8.0 kmh SSE 14.0 mph22.5 kmh 29.93 in1013.5 mb 0.01 in0.3 mm 0.00 in/hr0.0 mm/hr 0.01 in0.3 mm
03:53 PM 74.2°F23.4°C 54.4°F12.4°C 50% 5.0 mph SE8.0 kmh SE 14.0 mph22.5 kmh 29.92 in1013.2 mb 0.01 in0.3 mm 0.00 in/hr0.0 mm/hr 0.01 in0.3 mm
03:52 PM 74.4°F23.6°C 54.6°F12.6°C 50% 9.0 mph SE14.5 kmh SE 14.0 mph22.5 kmh 29.92 in1013.2 mb 0.01 in0.3 mm 0.00 in/hr0.0 mm/hr 0.01 in0.3 mm
03:51 PM 74.7°F23.7°C 54.8°F12.7°C 50% 4.0 mph ENE6.4 kmh ENE 14.0 mph22.5 kmh 29.92 in1013.2 mb 0.01 in0.3 mm 0.00 in/hr0.0 mm/hr 0.01 in0.3 mm
03:50 PM 75.0°F23.9°C 54.6°F12.6°C 49% 3.0 mph E4.8 kmh E 14.0 mph22.5 kmh 29.93 in1013.5 mb 0.01 in0.3 mm 0.00 in/hr0.0 mm/hr 0.01 in0.3 mm
03:49 PM 75.2°F24.0°C 54.2°F12.3°C 48% 3.0 mph SE4.8 kmh SE 14.0 mph22.5 kmh 29.93 in1013.5 mb 0.01 in0.3 mm 0.00 in/hr0.0 mm/hr 0.01 in0.3 mm
03:48 PM 75.4°F24.1°C 54.4°F12.4°C 48% 3.0 mph SE4.8 kmh SE 14.0 mph22.5 kmh 29.93 in1013.5 mb 0.01 in0.3 mm 0.00 in/hr0.0 mm/hr 0.01 in0.3 mm
03:47 PM 75.5°F24.2°C 55.0°F12.8°C 49% 10.0 mph SE16.1 kmh SE 14.0 mph22.5 kmh 29.93 in1013.5 mb 0.01 in0.3 mm 0.00 in/hr0.0 mm/hr 0.01 in0.3 mm
03:46 PM 75.7°F24.3°C 55.2°F12.9°C 49% 3.0 mph E4.8 kmh E 14.0 mph22.5 kmh 29.93 in1013.5 mb 0.01 in0.3 mm 0.00 in/hr0.0 mm/hr 0.01 in0.3 mm
03:45 PM 75.7°F24.3°C 55.2°F12.9°C 49% 6.0 mph E9.7 kmh E 14.0 mph22.5 kmh 29.93 in1013.5 mb 0.01 in0.3 mm 0.00 in/hr0.0 mm/hr 0.01 in0.3 mm
03:44 PM 75.8°F24.3°C 55.3°F12.9°C 49% 7.0 mph ESE11.3 kmh ESE 14.0 mph22.5 kmh 29.93 in1013.5 mb 0.01 in0.3 mm 0.60 in/hr15.2 mm/hr 0.01 in0.3 mm
03:43 PM 75.3°F24.1°C 54.8°F12.7°C 49% 9.0 mph E14.5 kmh E 14.0 mph22.5 kmh 29.93 in1013.5 mb 0.00 in0.0 mm 0.00 in/hr0.0 mm/hr 0.00 in0.0 mm
03:42 PM 74.6°F23.7°C 55.3°F12.9°C 51% 4.0 mph ESE6.4 kmh ESE 14.0 mph22.5 kmh 29.93 in1013.5 mb 0.00 in0.0 mm 0.00 in/hr0.0 mm/hr 0.00 in0.0 mm
03:41 PM 73.6°F23.1°C 54.9°F12.7°C 52% 8.0 mph E12.9 kmh E 14.0 mph22.5 kmh 29.93 in1013.5 mb 0.00 in0.0 mm 0.00 in/hr0.0 mm/hr 0.00 in0.0 mm
03:40 PM 73.5°F23.1°C 54.3°F12.4°C 51% 4.0 mph E6.4 kmh E 14.0 mph22.5 kmh 29.93 in1013.5 mb 0.00 in0.0 mm 0.00 in/hr0.0 mm/hr 0.00 in0.0 mm
03:39 PM 73.5°F23.1°C 54.3°F12.4°C 51% 5.0 mph ENE8.0 kmh ENE 14.0 mph22.5 kmh 29.93 in1013.5 mb 0.00 in0.0 mm 0.00 in/hr0.0 mm/hr 0.00 in0.0 mm
03:38 PM 73.6°F23.1°C 54.4°F12.4°C 51% 3.0 mph ESE4.8 kmh ESE 14.0 mph22.5 kmh 29.93 in1013.5 mb 0.00 in0.0 mm 0.00 in/hr0.0 mm/hr 0.00 in0.0 mm
03:37 PM 73.6°F23.1°C 54.9°F12.7°C 52% 7.0 mph E11.3 kmh E 14.0 mph22.5 kmh 29.93 in1013.5 mb 0.00 in0.0 mm 0.00 in/hr0.0 mm/hr 0.00 in0.0 mm
03:36 PM 73.5°F23.1°C 54.8°F12.7°C 52% 9.0 mph E14.5 kmh E 14.0 mph22.5 kmh 29.93 in1013.5 mb 0.00 in0.0 mm 0.00 in/hr0.0 mm/hr 0.00 in0.0 mm
03:35 PM 73.4°F23.0°C 54.7°F12.6°C 52% 8.0 mph E12.9 kmh E 14.0 mph22.5 kmh 29.93 in1013.5 mb 0.00 in0.0 mm 0.00 in/hr0.0 mm/hr 0.00 in0.0 mm
03:34 PM 73.4°F23.0°C 54.7°F12.6°C 52% 11.0 mph E17.7 kmh E 14.0 mph22.5 kmh 29.93 in1013.5 mb 0.00 in0.0 mm 0.00 in/hr0.0 mm/hr 0.00 in0.0 mm
03:33 PM 73.4°F23.0°C 54.7°F12.6°C 52% 5.0 mph E8.0 kmh E 10.0 mph16.1 kmh 29.93 in1013.5 mb 0.00 in0.0 mm 0.00 in/hr0.0 mm/hr 0.00 in0.0 mm
03:32 PM 73.4°F23.0°C 54.7°F12.6°C 52% 8.0 mph E12.9 kmh E 10.0 mph16.1 kmh 29.93 in1013.5 mb 0.00 in0.0 mm 0.00 in/hr0.0 mm/hr 0.00 in0.0 mm
03:31 PM 73.4°F23.0°C 54.7°F12.6°C 52% 9.0 mph E14.5 kmh E 9.0 mph14.5 kmh 29.93 in1013.5 mb 0.00 in0.0 mm 0.00 in/hr0.0 mm/hr 0.00 in0.0 mm
03:30 PM 73.3°F22.9°C 55.2°F12.9°C 53% 10.0 mph E16.1 kmh E 13.0 mph20.9 kmh 29.93 in1013.5 mb 0.00 in0.0 mm 0.00 in/hr0.0 mm/hr 0.00 in0.0 mm
03:29 PM 73.2°F22.9°C 54.5°F12.5°C 52% 10.0 mph E16.1 kmh E 13.0 mph20.9 kmh 29.93 in1013.5 mb 0.00 in0.0 mm 0.00 in/hr0.0 mm/hr 0.00 in0.0 mm
03:28 PM 73.2°F22.9°C 54.5°F12.5°C 52% 10.0 mph ENE16.1 kmh ENE 13.0 mph20.9 kmh 29.93 in1013.5 mb 0.00 in0.0 mm 0.00 in/hr0.0 mm/hr 0.00 in0.0 mm
03:27 PM 73.2°F22.9°C 55.1°F12.8°C 53% 10.0 mph E16.1 kmh E 13.0 mph20.9 kmh 29.93 in1013.5 mb 0.00 in0.0 mm 0.00 in/hr0.0 mm/hr 0.00 in0.0 mm
03:26 PM 73.1°F22.8°C 55.0°F12.8°C 53% 11.0 mph E17.7 kmh E 13.0 mph20.9 kmh 29.93 in1013.5 mb 0.00 in0.0 mm 0.00 in/hr0.0 mm/hr 0.00 in0.0 mm
03:25 PM 73.1°F22.8°C 55.0°F12.8°C 53% 5.0 mph ESE8.0 kmh ESE 13.0 mph20.9 kmh 29.94 in1013.9 mb 0.00 in0.0 mm 0.00 in/hr0.0 mm/hr 0.00 in0.0 mm
03:24 PM 73.1°F22.8°C 55.0°F12.8°C 53% 5.0 mph ESE8.0 kmh ESE 13.0 mph20.9 kmh 29.93 in1013.5 mb 0.00 in0.0 mm 0.00 in/hr0.0 mm/hr 0.00 in0.0 mm
03:23 PM 73.1°F22.8°C 55.5°F13.1°C 54% 7.0 mph E11.3 kmh E 13.0 mph20.9 kmh 29.93 in1013.5 mb 0.00 in0.0 mm 0.00 in/hr0.0 mm/hr 0.00 in0.0 mm
03:22 PM 73.1°F22.8°C 55.5°F13.1°C 54% 8.0 mph E12.9 kmh E 10.0 mph16.1 kmh 29.93 in1013.5 mb 0.00 in0.0 mm 0.00 in/hr0.0 mm/hr 0.00 in0.0 mm
03:21 PM 73.1°F22.8°C 55.0°F12.8°C 53% 3.0 mph NE4.8 kmh NE 10.0 mph16.1 kmh 29.94 in1013.9 mb 0.00 in0.0 mm 0.00 in/hr0.0 mm/hr 0.00 in0.0 mm
03:20 PM 73.1°F22.8°C 55.0°F12.8°C 53% 2.0 mph NE3.2 kmh NE 10.0 mph16.1 kmh 29.94 in1013.9 mb 0.00 in0.0 mm 0.00 in/hr0.0 mm/hr 0.00 in0.0 mm
03:19 PM 73.1°F22.8°C 55.0°F12.8°C 53% 4.0 mph ENE6.4 kmh ENE 10.0 mph16.1 kmh 29.94 in1013.9 mb 0.00 in0.0 mm 0.00 in/hr0.0 mm/hr 0.00 in0.0 mm
03:18 PM 73.0°F22.8°C 55.9°F13.3°C 55% 8.0 mph E12.9 kmh E 10.0 mph16.1 kmh 29.94 in1013.9 mb 0.00 in0.0 mm 0.00 in/hr0.0 mm/hr 0.00 in0.0 mm
03:17 PM 73.0°F22.8°C 54.9°F12.7°C 53% 7.0 mph ESE11.3 kmh ESE 10.0 mph16.1 kmh 29.94 in1013.9 mb 0.00 in0.0 mm 0.00 in/hr0.0 mm/hr 0.00 in0.0 mm
03:16 PM 73.0°F22.8°C 54.9°F12.7°C 53% 5.0 mph ESE8.0 kmh ESE 10.0 mph16.1 kmh 29.94 in1013.9 mb 0.00 in0.0 mm 0.00 in/hr0.0 mm/hr 0.00 in0.0 mm
03:15 PM 73.0°F22.8°C 54.9°F12.7°C 53% 1.0 mph SE1.6 kmh SE 10.0 mph16.1 kmh 29.94 in1013.9 mb 0.00 in0.0 mm 0.00 in/hr0.0 mm/hr 0.00 in0.0 mm
03:14 PM 72.9°F22.7°C 54.8°F12.7°C 53% 6.0 mph SSE9.7 kmh SSE 10.0 mph16.1 kmh 29.94 in1013.9 mb 0.00 in0.0 mm 0.00 in/hr0.0 mm/hr 0.00 in0.0 mm
03:13 PM 72.9°F22.7°C 55.3°F12.9°C 54% 9.0 mph SE14.5 kmh SE 10.0 mph16.1 kmh 29.94 in1013.9 mb 0.00 in0.0 mm 0.00 in/hr0.0 mm/hr 0.00 in0.0 mm
03:12 PM 72.8°F22.7°C 55.7°F13.2°C 55% 8.0 mph S12.9 kmh S 10.0 mph16.1 kmh 29.94 in1013.9 mb 0.00 in0.0 mm 0.00 in/hr0.0 mm/hr 0.00 in0.0 mm
03:11 PM 72.6°F22.6°C 55.5°F13.1°C 55% 8.0 mph SSE12.9 kmh SSE 10.0 mph16.1 kmh 29.94 in1013.9 mb 0.00 in0.0 mm 0.00 in/hr0.0 mm/hr 0.00 in0.0 mm
03:10 PM 72.5°F22.5°C 54.9°F12.7°C 54% 4.0 mph SSE6.4 kmh SSE 10.0 mph16.1 kmh 29.94 in1013.9 mb 0.00 in0.0 mm 0.00 in/hr0.0 mm/hr 0.00 in0.0 mm
03:09 PM 72.5°F22.5°C 54.9°F12.7°C 54% 5.0 mph SE8.0 kmh SE 10.0 mph16.1 kmh 29.94 in1013.9 mb 0.00 in0.0 mm 0.00 in/hr0.0 mm/hr 0.00 in0.0 mm
03:08 PM 72.5°F22.5°C 54.4°F12.4°C 53% 3.0 mph E4.8 kmh E 10.0 mph16.1 kmh 29.94 in1013.9 mb 0.00 in0.0 mm 0.00 in/hr0.0 mm/hr 0.00 in0.0 mm
03:07 PM 72.5°F22.5°C 54.4°F12.4°C 53% 7.0 mph E11.3 kmh E 10.0 mph16.1 kmh 29.94 in1013.9 mb 0.00 in0.0 mm 0.00 in/hr0.0 mm/hr 0.00 in0.0 mm
03:06 PM 72.6°F22.6°C 54.5°F12.5°C 53% 7.0 mph ESE11.3 kmh ESE 10.0 mph16.1 kmh 29.94 in1013.9 mb 0.00 in0.0 mm 0.00 in/hr0.0 mm/hr 0.00 in0.0 mm
03:05 PM 72.7°F22.6°C 54.6°F12.6°C 53% 5.0 mph ESE8.0 kmh ESE 10.0 mph16.1 kmh 29.95 in1014.2 mb 0.00 in0.0 mm 0.00 in/hr0.0 mm/hr 0.00 in0.0 mm
03:04 PM 72.7°F22.6°C 54.1°F12.3°C 52% 7.0 mph E11.3 kmh E 8.0 mph12.9 kmh 29.95 in1014.2 mb 0.00 in0.0 mm 0.00 in/hr0.0 mm/hr 0.00 in0.0 mm
03:03 PM 72.8°F22.7°C 54.7°F12.6°C 53% 4.0 mph ESE6.4 kmh ESE 8.0 mph12.9 kmh 29.94 in1013.9 mb 0.00 in0.0 mm 0.00 in/hr0.0 mm/hr 0.00 in0.0 mm
03:02 PM 72.8°F22.7°C 54.2°F12.3°C 52% 3.0 mph ESE4.8 kmh ESE 7.0 mph11.3 kmh 29.94 in1013.9 mb 0.00 in0.0 mm 0.00 in/hr0.0 mm/hr 0.00 in0.0 mm
03:01 PM 72.8°F22.7°C 55.2°F12.9°C 54% 5.0 mph SE8.0 kmh SE 6.0 mph9.7 kmh 29.94 in1013.9 mb 0.00 in0.0 mm 0.00 in/hr0.0 mm/hr 0.00 in0.0 mm
03:00 PM 72.8°F22.7°C 55.2°F12.9°C 54% 6.0 mph SSE9.7 kmh SSE 11.0 mph17.7 kmh 29.94 in1013.9 mb 0.00 in0.0 mm 0.00 in/hr0.0 mm/hr 0.00 in0.0 mm
02:59 PM 72.8°F22.7°C 55.2°F12.9°C 54% 6.0 mph SSE9.7 kmh SSE 11.0 mph17.7 kmh 29.95 in1014.2 mb 0.00 in0.0 mm 0.00 in/hr0.0 mm/hr 0.00 in0.0 mm
02:58 PM 72.7°F22.6°C 55.1°F12.8°C 54% 3.0 mph SE4.8 kmh SE 11.0 mph17.7 kmh 29.94 in1013.9 mb 0.00 in0.0 mm 0.00 in/hr0.0 mm/hr 0.00 in0.0 mm
02:57 PM 72.7°F22.6°C 54.6°F12.6°C 53% 4.0 mph SSW6.4 kmh SSW 11.0 mph17.7 kmh 29.95 in1014.2 mb 0.00 in0.0 mm 0.00 in/hr0.0 mm/hr 0.00 in0.0 mm
02:56 PM 72.7°F22.6°C 55.1°F12.8°C 54% 8.0 mph SSW12.9 kmh SSW 11.0 mph17.7 kmh 29.95 in1014.2 mb 0.00 in0.0 mm 0.00 in/hr0.0 mm/hr 0.00 in0.0 mm
02:55 PM 72.7°F22.6°C 54.6°F12.6°C 53% 8.0 mph S12.9 kmh S 11.0 mph17.7 kmh 29.95 in1014.2 mb 0.00 in0.0 mm 0.00 in/hr0.0 mm/hr 0.00 in0.0 mm
02:54 PM 72.8°F22.7°C 54.7°F12.6°C 53% 5.0 mph SE8.0 kmh SE 11.0 mph17.7 kmh 29.95 in1014.2 mb 0.00 in0.0 mm 0.00 in/hr0.0 mm/hr 0.00 in0.0 mm
02:53 PM 72.7°F22.6°C 54.6°F12.6°C 53% 10.0 mph SE16.1 kmh SE 11.0 mph17.7 kmh 29.95 in1014.2 mb 0.00 in0.0 mm 0.00 in/hr0.0 mm/hr 0.00 in0.0 mm
02:52 PM 72.6°F22.6°C 54.5°F12.5°C 53% 8.0 mph SE12.9 kmh SE 11.0 mph17.7 kmh 29.95 in1014.2 mb 0.00 in0.0 mm 0.00 in/hr0.0 mm/hr 0.00 in0.0 mm
02:51 PM 72.6°F22.6°C 54.5°F12.5°C 53% 4.0 mph SSE6.4 kmh SSE 11.0 mph17.7 kmh 29.95 in1014.2 mb 0.00 in0.0 mm 0.00 in/hr0.0 mm/hr 0.00 in0.0 mm
02:50 PM 72.5°F22.5°C 54.9°F12.7°C 54% 4.0 mph SSE6.4 kmh SSE 11.0 mph17.7 kmh 29.95 in1014.2 mb 0.00 in0.0 mm 0.00 in/hr0.0 mm/hr 0.00 in0.0 mm
02:49 PM 72.5°F22.5°C 54.4°F12.4°C 53% 3.0 mph ESE4.8 kmh ESE 11.0 mph17.7 kmh 29.95 in1014.2 mb 0.00 in0.0 mm 0.00 in/hr0.0 mm/hr 0.00 in0.0 mm
02:48 PM 72.5°F22.5°C 55.4°F13.0°C 55% 5.0 mph E8.0 kmh E 11.0 mph17.7 kmh 29.95 in1014.2 mb 0.00 in0.0 mm 0.00 in/hr0.0 mm/hr 0.00 in0.0 mm
02:47 PM 72.5°F22.5°C 55.4°F13.0°C 55% 8.0 mph ESE12.9 kmh ESE 11.0 mph17.7 kmh 29.95 in1014.2 mb 0.00 in0.0 mm 0.00 in/hr0.0 mm/hr 0.00 in0.0 mm
02:46 PM 72.4°F22.4°C 55.3°F12.9°C 55% 3.0 mph E4.8 kmh E 11.0 mph17.7 kmh 29.95 in1014.2 mb 0.00 in0.0 mm 0.00 in/hr0.0 mm/hr 0.00 in0.0 mm
02:45 PM 72.2°F22.3°C 55.7°F13.2°C 56% 7.0 mph ESE11.3 kmh ESE 11.0 mph17.7 kmh 29.95 in1014.2 mb 0.00 in0.0 mm 0.00 in/hr0.0 mm/hr 0.00 in0.0 mm
02:44 PM 72.1°F22.3°C 55.1°F12.8°C 55% 8.0 mph E12.9 kmh E 10.0 mph16.1 kmh 29.95 in1014.2 mb 0.00 in0.0 mm 0.00 in/hr0.0 mm/hr 0.00 in0.0 mm
02:43 PM 72.1°F22.3°C 54.6°F12.6°C 54% 4.0 mph SSE6.4 kmh SSE 10.0 mph16.1 kmh 29.95 in1014.2 mb 0.00 in0.0 mm 0.00 in/hr0.0 mm/hr 0.00 in0.0 mm
02:42 PM 72.1°F22.3°C 54.6°F12.6°C 54% 3.0 mph SSE4.8 kmh SSE 10.0 mph16.1 kmh 29.95 in1014.2 mb 0.00 in0.0 mm 0.00 in/hr0.0 mm/hr 0.00 in0.0 mm
02:41 PM 72.1°F22.3°C 55.1°F12.8°C 55% 7.0 mph SE11.3 kmh SE 10.0 mph16.1 kmh 29.95 in1014.2 mb 0.00 in0.0 mm 0.00 in/hr0.0 mm/hr 0.00 in0.0 mm
02:40 PM 72.0°F22.2°C 55.0°F12.8°C 55% 8.0 mph SSE12.9 kmh SSE 10.0 mph16.1 kmh 29.95 in1014.2 mb 0.00 in0.0 mm 0.00 in/hr0.0 mm/hr 0.00 in0.0 mm
02:39 PM 72.1°F22.3°C 55.1°F12.8°C 55% 5.0 mph SE8.0 kmh SE 8.0 mph12.9 kmh 29.95 in1014.2 mb 0.00 in0.0 mm 0.00 in/hr0.0 mm/hr 0.00 in0.0 mm
02:38 PM 72.0°F22.2°C 55.0°F12.8°C 55% 7.0 mph S11.3 kmh S 8.0 mph12.9 kmh 29.95 in1014.2 mb 0.00 in0.0 mm 0.00 in/hr0.0 mm/hr 0.00 in0.0 mm
02:37 PM 72.0°F22.2°C 55.0°F12.8°C 55% 2.0 mph N3.2 kmh N 8.0 mph12.9 kmh 29.95 in1014.2 mb 0.00 in0.0 mm 0.00 in/hr0.0 mm/hr 0.00 in0.0 mm
02:36 PM 72.0°F22.2°C 54.5°F12.5°C 54% 2.0 mph ESE3.2 kmh ESE 8.0 mph12.9 kmh 29.95 in1014.2 mb 0.00 in0.0 mm 0.00 in/hr0.0 mm/hr 0.00 in0.0 mm
02:35 PM 72.0°F22.2°C 55.0°F12.8°C 55% 1.0 mph ESE1.6 kmh ESE 8.0 mph12.9 kmh 29.95 in1014.2 mb 0.00 in0.0 mm 0.00 in/hr0.0 mm/hr 0.00 in0.0 mm
02:34 PM 72.0°F22.2°C 55.0°F12.8°C 55% 3.0 mph SE4.8 kmh SE 8.0 mph12.9 kmh 29.95 in1014.2 mb 0.00 in0.0 mm 0.00 in/hr0.0 mm/hr 0.00 in0.0 mm
02:33 PM 71.9°F22.2°C 54.9°F12.7°C 55% 7.0 mph SE11.3 kmh SE 7.0 mph11.3 kmh 29.95 in1014.2 mb 0.00 in0.0 mm 0.00 in/hr0.0 mm/hr 0.00 in0.0 mm
02:32 PM 71.9°F22.2°C 54.9°F12.7°C 55% 2.0 mph ESE3.2 kmh ESE 7.0 mph11.3 kmh 29.95 in1014.2 mb 0.00 in0.0 mm 0.00 in/hr0.0 mm/hr 0.00 in0.0 mm
02:31 PM 71.9°F22.2°C 54.9°F12.7°C 55% 6.0 mph SE9.7 kmh SE 7.0 mph11.3 kmh 29.95 in1014.2 mb 0.00 in0.0 mm 0.00 in/hr0.0 mm/hr 0.00 in0.0 mm
02:30 PM 71.9°F22.2°C 54.9°F12.7°C 55% 4.0 mph ESE6.4 kmh ESE 12.0 mph19.3 kmh 29.95 in1014.2 mb 0.00 in0.0 mm 0.00 in/hr0.0 mm/hr 0.00 in0.0 mm
02:29 PM 71.9°F22.2°C 54.9°F12.7°C 55% 7.0 mph SE11.3 kmh SE 12.0 mph19.3 kmh 29.95 in1014.2 mb 0.00 in0.0 mm 0.00 in/hr0.0 mm/hr 0.00 in0.0 mm
02:28 PM 71.8°F22.1°C 54.8°F12.7°C 55% 8.0 mph SE12.9 kmh SE 12.0 mph19.3 kmh 29.95 in1014.2 mb 0.00 in0.0 mm 0.00 in/hr0.0 mm/hr 0.00 in0.0 mm
02:27 PM 71.7°F22.1°C 54.7°F12.6°C 55% 8.0 mph SSE12.9 kmh SSE 12.0 mph19.3 kmh 29.95 in1014.2 mb 0.00 in0.0 mm 0.00 in/hr0.0 mm/hr 0.00 in0.0 mm
02:26 PM 71.7°F22.1°C 54.7°F12.6°C 55% 7.0 mph SSE11.3 kmh SSE 12.0 mph19.3 kmh 29.95 in1014.2 mb 0.00 in0.0 mm 0.00 in/hr0.0 mm/hr 0.00 in0.0 mm
02:25 PM 71.6°F22.0°C 55.1°F12.8°C 56% 7.0 mph SSE11.3 kmh SSE 12.0 mph19.3 kmh 29.95 in1014.2 mb 0.00 in0.0 mm 0.00 in/hr0.0 mm/hr 0.00 in0.0 mm
02:24 PM 71.6°F22.0°C 55.1°F12.8°C 56% 6.0 mph S9.7 kmh S 12.0 mph19.3 kmh 29.96 in1014.6 mb 0.00 in0.0 mm 0.00 in/hr0.0 mm/hr 0.00 in0.0 mm
02:23 PM 71.7°F22.1°C 55.2°F12.9°C 56% 8.0 mph SSE12.9 kmh SSE 12.0 mph19.3 kmh 29.96 in1014.6 mb 0.00 in0.0 mm 0.00 in/hr0.0 mm/hr 0.00 in0.0 mm
02:22 PM 71.7°F22.1°C 55.2°F12.9°C 56% 6.0 mph SE9.7 kmh SE 12.0 mph19.3 kmh 29.96 in1014.6 mb 0.00 in0.0 mm 0.00 in/hr0.0 mm/hr 0.00 in0.0 mm
02:21 PM 71.8°F22.1°C 55.3°F12.9°C 56% 6.0 mph E9.7 kmh E 12.0 mph19.3 kmh 29.95 in1014.2 mb 0.00 in0.0 mm 0.00 in/hr0.0 mm/hr 0.00 in0.0 mm
02:20 PM 71.7°F22.1°C 55.7°F13.2°C 57% 5.0 mph SE8.0 kmh SE 12.0 mph19.3 kmh 29.96 in1014.6 mb 0.00 in0.0 mm 0.00 in/hr0.0 mm/hr 0.00 in0.0 mm
02:19 PM 71.7°F22.1°C 56.6°F13.7°C 59% 10.0 mph ESE16.1 kmh ESE 12.0 mph19.3 kmh 29.96 in1014.6 mb 0.00 in0.0 mm 0.00 in/hr0.0 mm/hr 0.00 in0.0 mm
02:18 PM 71.6°F22.0°C 56.5°F13.6°C 59% 1.0 mph NNE1.6 kmh NNE 12.0 mph19.3 kmh 29.95 in1014.2 mb 0.00 in0.0 mm 0.00 in/hr0.0 mm/hr 0.00 in0.0 mm
02:17 PM 71.4°F21.9°C 54.9°F12.7°C 56% Calm Calm 12.0 mph19.3 kmh 29.95 in1014.2 mb 0.00 in0.0 mm 0.00 in/hr0.0 mm/hr 0.00 in0.0 mm
02:16 PM 71.4°F21.9°C 55.4°F13.0°C 57% 4.0 mph S6.4 kmh S 12.0 mph19.3 kmh 29.95 in1014.2 mb 0.00 in0.0 mm 0.00 in/hr0.0 mm/hr 0.00 in0.0 mm
02:15 PM 71.4°F21.9°C 55.4°F13.0°C 57% 3.0 mph S4.8 kmh S 12.0 mph19.3 kmh 29.96 in1014.6 mb 0.00 in0.0 mm 0.00 in/hr0.0 mm/hr 0.00 in0.0 mm
02:14 PM 71.3°F21.8°C 55.3°F12.9°C 57% 8.0 mph SSE12.9 kmh SSE 12.0 mph19.3 kmh 29.96 in1014.6 mb 0.00 in0.0 mm 0.00 in/hr0.0 mm/hr 0.00 in0.0 mm
02:13 PM 71.3°F21.8°C 54.8°F12.7°C 56% 8.0 mph SE12.9 kmh SE 12.0 mph19.3 kmh 29.96 in1014.6 mb 0.00 in0.0 mm 0.00 in/hr0.0 mm/hr 0.00 in0.0 mm
02:12 PM 71.3°F21.8°C 55.3°F12.9°C 57% 3.0 mph SE4.8 kmh SE 12.0 mph19.3 kmh 29.96 in1014.6 mb 0.00 in0.0 mm 0.00 in/hr0.0 mm/hr 0.00 in0.0 mm
02:11 PM 71.3°F21.8°C 55.3°F12.9°C 57% 4.0 mph SSE6.4 kmh SSE 12.0 mph19.3 kmh 29.96 in1014.6 mb 0.00 in0.0 mm 0.00 in/hr0.0 mm/hr 0.00 in0.0 mm
02:10 PM 71.3°F21.8°C 55.3°F12.9°C 57% 7.0 mph SSE11.3 kmh SSE 12.0 mph19.3 kmh 29.96 in1014.6 mb 0.00 in0.0 mm 0.00 in/hr0.0 mm/hr 0.00 in0.0 mm
02:09 PM 71.3°F21.8°C 55.3°F12.9°C 57% 10.0 mph SE16.1 kmh SE 12.0 mph19.3 kmh 29.96 in1014.6 mb 0.00 in0.0 mm 0.00 in/hr0.0 mm/hr 0.00 in0.0 mm
02:08 PM 71.3°F21.8°C 55.3°F12.9°C 57% 10.0 mph SE16.1 kmh SE 12.0 mph19.3 kmh 29.96 in1014.6 mb 0.00 in0.0 mm 0.00 in/hr0.0 mm/hr 0.00 in0.0 mm
02:07 PM 71.3°F21.8°C 55.3°F12.9°C 57% 8.0 mph SE12.9 kmh SE 12.0 mph19.3 kmh 29.96 in1014.6 mb 0.00 in0.0 mm 0.00 in/hr0.0 mm/hr 0.00 in0.0 mm
02:06 PM 71.3°F21.8°C 55.3°F12.9°C 57% 10.0 mph SE16.1 kmh SE 12.0 mph19.3 kmh 29.96 in1014.6 mb 0.00 in0.0 mm 0.00 in/hr0.0 mm/hr 0.00 in0.0 mm
02:05 PM 71.3°F21.8°C 54.8°F12.7°C 56% 7.0 mph SE11.3 kmh SE 10.0 mph16.1 kmh 29.96 in1014.6 mb 0.00 in0.0 mm 0.00 in/hr0.0 mm/hr 0.00 in0.0 mm
02:04 PM 71.3°F21.8°C 54.8°F12.7°C 56% 8.0 mph SE12.9 kmh SE 10.0 mph16.1 kmh 29.96 in1014.6 mb 0.00 in0.0 mm 0.00 in/hr0.0 mm/hr 0.00 in0.0 mm
02:03 PM 71.2°F21.8°C 55.2°F12.9°C 57% 5.0 mph SE8.0 kmh SE 8.0 mph12.9 kmh 29.96 in1014.6 mb 0.00 in0.0 mm 0.00 in/hr0.0 mm/hr 0.00 in0.0 mm
02:02 PM 71.1°F21.7°C 55.1°F12.8°C 57% 2.0 mph SSE3.2 kmh SSE 4.0 mph6.4 kmh 29.96 in1014.6 mb 0.00 in0.0 mm 0.00 in/hr0.0 mm/hr 0.00 in0.0 mm
02:01 PM 71.1°F21.7°C 54.1°F12.3°C 55% 4.0 mph SW6.4 kmh SW 4.0 mph6.4 kmh 29.96 in1014.6 mb 0.00 in0.0 mm 0.00 in/hr0.0 mm/hr 0.00 in0.0 mm
02:00 PM 71.0°F21.7°C 54.0°F12.2°C 55% 2.0 mph SW3.2 kmh SW 15.0 mph24.1 kmh 29.96 in1014.6 mb 0.00 in0.0 mm 0.00 in/hr0.0 mm/hr 0.00 in0.0 mm
01:59 PM 71.0°F21.7°C 54.0°F12.2°C 55% 5.0 mph S8.0 kmh S 15.0 mph24.1 kmh 29.96 in1014.6 mb 0.00 in0.0 mm 0.00 in/hr0.0 mm/hr 0.00 in0.0 mm
01:58 PM 71.0°F21.7°C 54.0°F12.2°C 55% 4.0 mph SE6.4 kmh SE 15.0 mph24.1 kmh 29.96 in1014.6 mb 0.00 in0.0 mm 0.00 in/hr0.0 mm/hr 0.00 in0.0 mm
01:57 PM 71.0°F21.7°C 54.5°F12.5°C 56% 8.0 mph SE12.9 kmh SE 15.0 mph24.1 kmh 29.97 in1014.9 mb 0.00 in0.0 mm 0.00 in/hr0.0 mm/hr 0.00 in0.0 mm
01:56 PM 71.0°F21.7°C 54.0°F12.2°C 55% 6.0 mph SSE9.7 kmh SSE 15.0 mph24.1 kmh 29.97 in1014.9 mb 0.00 in0.0 mm 0.00 in/hr0.0 mm/hr 0.00 in0.0 mm
01:55 PM 71.0°F21.7°C 54.5°F12.5°C 56% 7.0 mph SE11.3 kmh SE 15.0 mph24.1 kmh 29.97 in1014.9 mb 0.00 in0.0 mm 0.00 in/hr0.0 mm/hr 0.00 in0.0 mm
01:54 PM 71.0°F21.7°C 54.0°F12.2°C 55% 4.0 mph SE6.4 kmh SE 15.0 mph24.1 kmh 29.96 in1014.6 mb 0.00 in0.0 mm 0.00 in/hr0.0 mm/hr 0.00 in0.0 mm
01:53 PM 71.0°F21.7°C 54.0°F12.2°C 55% 9.0 mph SE14.5 kmh SE 15.0 mph24.1 kmh 29.96 in1014.6 mb 0.00 in0.0 mm 0.00 in/hr0.0 mm/hr 0.00 in0.0 mm
01:52 PM 71.0°F21.7°C 55.0°F12.8°C 57% 11.0 mph SSE17.7 kmh SSE 15.0 mph24.1 kmh 29.96 in1014.6 mb 0.00 in0.0 mm 0.00 in/hr0.0 mm/hr 0.00 in0.0 mm
01:51 PM 71.0°F21.7°C 55.0°F12.8°C 57% 9.0 mph ESE14.5 kmh ESE 15.0 mph24.1 kmh 29.96 in1014.6 mb 0.00 in0.0 mm 0.00 in/hr0.0 mm/hr 0.00 in0.0 mm
01:50 PM 70.9°F21.6°C 54.9°F12.7°C 57% 7.0 mph SE11.3 kmh SE 13.0 mph20.9 kmh 29.96 in1014.6 mb 0.00 in0.0 mm 0.00 in/hr0.0 mm/hr 0.00 in0.0 mm
01:49 PM 70.9°F21.6°C 54.4°F12.4°C 56% 6.0 mph E9.7 kmh E 13.0 mph20.9 kmh 29.96 in1014.6 mb 0.00 in0.0 mm 0.00 in/hr0.0 mm/hr 0.00 in0.0 mm
01:48 PM 71.0°F21.7°C 54.5°F12.5°C 56% 9.0 mph E14.5 kmh E 13.0 mph20.9 kmh 29.97 in1014.9 mb 0.00 in0.0 mm 0.00 in/hr0.0 mm/hr 0.00 in0.0 mm
01:47 PM 71.0°F21.7°C 54.5°F12.5°C 56% 7.0 mph ESE11.3 kmh ESE 12.0 mph19.3 kmh 29.96 in1014.6 mb 0.00 in0.0 mm 0.00 in/hr0.0 mm/hr 0.00 in0.0 mm
01:46 PM 71.1°F21.7°C 54.6°F12.6°C 56% 9.0 mph SSE14.5 kmh SSE 12.0 mph19.3 kmh 29.96 in1014.6 mb 0.00 in0.0 mm 0.00 in/hr0.0 mm/hr 0.00 in0.0 mm
01:45 PM 71.1°F21.7°C 55.1°F12.8°C 57% 7.0 mph SE11.3 kmh SE 12.0 mph19.3 kmh 29.96 in1014.6 mb 0.00 in0.0 mm 0.00 in/hr0.0 mm/hr 0.00 in0.0 mm
01:44 PM 71.1°F21.7°C 55.1°F12.8°C 57% 5.0 mph SE8.0 kmh SE 12.0 mph19.3 kmh 29.96 in1014.6 mb 0.00 in0.0 mm 0.00 in/hr0.0 mm/hr 0.00 in0.0 mm
01:43 PM 71.1°F21.7°C 55.6°F13.1°C 58% 11.0 mph SSE17.7 kmh SSE 12.0 mph19.3 kmh 29.96 in1014.6 mb 0.00 in0.0 mm 0.00 in/hr0.0 mm/hr 0.00 in0.0 mm
01:42 PM 71.1°F21.7°C 55.1°F12.8°C 57% 10.0 mph S16.1 kmh S 12.0 mph19.3 kmh 29.96 in1014.6 mb 0.00 in0.0 mm 0.00 in/hr0.0 mm/hr 0.00 in0.0 mm
01:41 PM 71.0°F21.7°C 55.0°F12.8°C 57% 8.0 mph SSE12.9 kmh SSE 12.0 mph19.3 kmh 29.97 in1014.9 mb 0.00 in0.0 mm 0.00 in/hr0.0 mm/hr 0.00 in0.0 mm
01:40 PM 71.0°F21.7°C 55.0°F12.8°C 57% 8.0 mph SE12.9 kmh SE 12.0 mph19.3 kmh 29.96 in1014.6 mb 0.00 in0.0 mm 0.00 in/hr0.0 mm/hr 0.00 in0.0 mm
01:39 PM 71.0°F21.7°C 55.0°F12.8°C 57% 9.0 mph SE14.5 kmh SE 12.0 mph19.3 kmh 29.97 in1014.9 mb 0.00 in0.0 mm 0.00 in/hr0.0 mm/hr 0.00 in0.0 mm